createdAt,value
2022-10-11T00:01:56.855Z,11.00
2022-10-11T00:04:23.566Z,11.00
2022-10-11T00:06:50.246Z,11.00
2022-10-11T00:09:17.045Z,11.10
2022-10-11T00:11:43.687Z,11.10
2022-10-11T00:14:10.613Z,11.10
2022-10-11T00:16:40.907Z,11.10
2022-10-11T00:19:07.789Z,11.20
2022-10-11T00:21:34.431Z,11.10
2022-10-11T00:24:01.076Z,11.10
2022-10-11T00:26:27.747Z,11.20
2022-10-11T00:28:54.413Z,11.10
2022-10-11T00:31:21.173Z,11.10
2022-10-11T00:33:47.821Z,11.20
2022-10-11T00:36:16.942Z,11.10
2022-10-11T00:38:44.438Z,11.20
2022-10-11T00:41:11.593Z,11.20
2022-10-11T00:43:38.477Z,11.10
2022-10-11T00:46:08.326Z,11.10
2022-10-11T00:48:46.046Z,11.10
2022-10-11T00:51:15.808Z,11.10
2022-10-11T00:53:42.675Z,11.10
2022-10-11T00:56:29.535Z,11.20
2022-10-11T00:58:57.471Z,11.30
2022-10-11T01:01:24.360Z,11.40
2022-10-11T01:03:51.063Z,11.50
2022-10-11T01:06:17.706Z,11.50
2022-10-11T01:08:44.590Z,11.60
2022-10-11T01:11:13.736Z,11.70
2022-10-11T01:13:46.254Z,11.80
2022-10-11T01:16:15.915Z,11.90
2022-10-11T01:18:53.214Z,12.00
2022-10-11T01:21:35.247Z,12.00
2022-10-11T01:24:17.601Z,12.10
2022-10-11T01:27:02.948Z,12.10
2022-10-11T01:29:29.544Z,12.10
2022-10-11T01:32:05.728Z,12.10
2022-10-11T01:34:35.117Z,12.10
2022-10-11T01:37:01.779Z,12.20
2022-10-11T01:39:43.623Z,12.20
2022-10-11T01:42:11.421Z,12.20
2022-10-11T01:44:39.140Z,12.30
2022-10-11T01:47:05.798Z,12.30
2022-10-11T01:49:32.449Z,12.40
2022-10-11T01:52:00.829Z,12.40
2022-10-11T01:54:56.444Z,12.40
2022-10-11T01:57:31.294Z,12.50
2022-10-11T02:00:00.914Z,12.50
2022-10-11T02:02:42.855Z,12.50
2022-10-11T02:05:17.385Z,12.50
2022-10-11T02:08:07.326Z,12.50
2022-10-11T02:10:36.958Z,12.50
2022-10-11T02:13:07.888Z,12.50
2022-10-11T02:15:36.533Z,12.50
2022-10-11T02:18:06.094Z,12.50
2022-10-11T02:20:33.072Z,12.50
2022-10-11T02:23:10.287Z,12.50
2022-10-11T02:25:37.116Z,12.40
2022-10-11T02:28:06.714Z,12.50
2022-10-11T02:30:34.102Z,12.40
2022-10-11T02:33:02.610Z,12.40
2022-10-11T02:35:29.997Z,12.40
2022-10-11T02:38:06.023Z,12.40
2022-10-11T02:40:33.524Z,12.40
2022-10-11T02:43:24.117Z,12.30
2022-10-11T02:45:56.328Z,12.30
2022-10-11T02:48:24.171Z,12.30
2022-10-11T02:50:51.003Z,12.30
2022-10-11T02:53:17.691Z,12.30
2022-10-11T02:55:44.380Z,12.30
2022-10-11T02:58:11.071Z,12.30
2022-10-11T03:00:37.733Z,12.20
2022-10-11T03:03:04.397Z,12.20
2022-10-11T03:05:31.031Z,12.20
2022-10-11T03:07:57.706Z,12.30
2022-10-11T03:10:24.353Z,12.20
2022-10-11T03:12:51.047Z,12.20
2022-10-11T03:15:17.745Z,12.30
2022-10-11T03:17:44.382Z,12.20
2022-10-11T03:20:11.054Z,12.30
2022-10-11T03:22:37.681Z,12.30
2022-10-11T03:25:04.972Z,12.30
2022-10-11T03:27:32.669Z,12.30
2022-10-11T03:29:59.446Z,12.30
2022-10-11T03:32:26.287Z,12.30
2022-10-11T03:34:53.004Z,12.30
2022-10-11T03:37:19.621Z,12.40
2022-10-11T03:39:46.305Z,12.40
2022-10-11T03:42:13.203Z,12.40
2022-10-11T03:44:39.902Z,12.40
2022-10-11T03:47:06.550Z,12.40
2022-10-11T03:49:33.212Z,12.40
2022-10-11T03:51:59.913Z,12.40
2022-10-11T03:54:26.560Z,12.40
2022-10-11T03:56:53.495Z,12.40
2022-10-11T03:59:20.156Z,12.40
2022-10-11T04:01:46.855Z,12.40
2022-10-11T04:04:13.540Z,12.40
2022-10-11T04:06:40.188Z,12.40
2022-10-11T04:09:06.879Z,12.40
2022-10-11T04:11:33.503Z,12.40
2022-10-11T04:14:00.184Z,12.40
2022-10-11T04:16:26.906Z,12.40
2022-10-11T04:18:53.621Z,12.40
2022-10-11T04:21:20.289Z,12.40
2022-10-11T04:23:46.968Z,12.40
2022-10-11T04:26:13.669Z,12.40
2022-10-11T04:28:40.403Z,12.40
2022-10-11T04:31:08.018Z,12.40
2022-10-11T04:33:34.639Z,12.40
2022-10-11T04:36:01.497Z,12.30
2022-10-11T04:38:28.480Z,12.30
2022-10-11T04:40:55.268Z,12.30
2022-10-11T04:43:21.929Z,12.20
2022-10-11T04:45:51.251Z,12.30
2022-10-11T04:48:21.389Z,12.30
2022-10-11T04:50:48.184Z,12.20
2022-10-11T04:53:15.028Z,12.20
2022-10-11T04:55:41.653Z,12.20
2022-10-11T04:58:08.264Z,12.20
2022-10-11T05:00:34.899Z,12.20
2022-10-11T05:03:01.776Z,12.20
2022-10-11T05:05:28.629Z,12.20
2022-10-11T05:07:55.232Z,12.20
2022-10-11T05:10:21.866Z,12.20
2022-10-11T05:12:48.488Z,12.10
2022-10-11T05:15:15.125Z,12.20
2022-10-11T05:17:41.796Z,12.10
2022-10-11T05:20:08.712Z,12.10
2022-10-11T05:22:35.414Z,12.10
2022-10-11T05:25:02.049Z,12.10
2022-10-11T05:27:28.715Z,12.10
2022-10-11T05:29:55.410Z,12.00
2022-10-11T05:32:25.546Z,12.00
2022-10-11T05:34:54.508Z,12.00
2022-10-11T05:37:21.329Z,11.90
2022-10-11T05:39:48.007Z,11.90
2022-10-11T05:42:15.077Z,11.90
2022-10-11T05:44:41.692Z,12.00
2022-10-11T05:47:08.483Z,11.90
2022-10-11T05:49:35.111Z,11.90
2022-10-11T05:52:01.753Z,11.90
2022-10-11T05:54:31.597Z,12.00
2022-10-11T05:56:58.243Z,12.00
2022-10-11T05:59:24.897Z,12.00
2022-10-11T06:01:51.544Z,12.00
2022-10-11T06:04:19.245Z,12.10
2022-10-11T06:06:45.949Z,12.10
2022-10-11T06:09:12.856Z,12.20
2022-10-11T06:11:41.348Z,12.30
2022-10-11T06:14:09.229Z,12.40
2022-10-11T06:16:35.904Z,12.50
2022-10-11T06:19:02.622Z,12.50
2022-10-11T06:21:29.437Z,12.60
2022-10-11T06:24:01.096Z,12.70
2022-10-11T06:26:28.963Z,12.70
2022-10-11T06:28:55.785Z,12.80
2022-10-11T06:31:22.522Z,12.90
2022-10-11T06:33:49.168Z,12.90
2022-10-11T06:36:16.813Z,13.00
2022-10-11T06:38:45.141Z,13.00
2022-10-11T06:41:14.284Z,13.00
2022-10-11T06:43:41.044Z,13.10
2022-10-11T06:46:08.498Z,13.10
2022-10-11T06:48:35.439Z,13.20
2022-10-11T06:51:02.120Z,13.20
2022-10-11T06:53:28.821Z,13.30
2022-10-11T06:56:01.480Z,13.30
2022-10-11T06:58:28.503Z,13.30
2022-10-11T07:00:55.261Z,13.40
2022-10-11T07:03:21.984Z,13.50
2022-10-11T07:05:48.623Z,13.50
2022-10-11T07:08:15.264Z,13.60
2022-10-11T07:10:42.001Z,13.60
2022-10-11T07:13:12.504Z,13.70
2022-10-11T07:15:41.556Z,13.70
2022-10-11T07:18:08.244Z,13.70
2022-10-11T07:20:35.769Z,13.80
2022-10-11T07:23:02.389Z,13.80
2022-10-11T07:25:29.056Z,13.90
2022-10-11T07:27:55.693Z,13.90
2022-10-11T07:30:22.365Z,13.90
2022-10-11T07:32:48.994Z,14.00
2022-10-11T07:35:15.644Z,14.00
2022-10-11T07:37:42.267Z,14.10
2022-10-11T07:40:11.300Z,14.10
2022-10-11T07:42:37.981Z,14.20
2022-10-11T07:45:05.080Z,14.20
2022-10-11T07:47:31.727Z,14.30
2022-10-11T07:49:58.371Z,14.40
2022-10-11T07:52:25.057Z,14.50
2022-10-11T07:54:51.697Z,14.60
2022-10-11T07:57:18.325Z,14.60
2022-10-11T07:59:49.973Z,14.70
2022-10-11T08:02:16.950Z,14.80
2022-10-11T08:04:43.583Z,14.90
2022-10-11T08:07:10.209Z,15.00
2022-10-11T08:09:36.840Z,15.10
2022-10-11T08:12:03.567Z,15.30
2022-10-11T08:14:30.232Z,15.50
2022-10-11T08:16:56.884Z,15.70
2022-10-11T08:19:23.561Z,15.80
2022-10-11T08:21:50.229Z,16.10
2022-10-11T08:24:20.728Z,16.20
2022-10-11T08:26:47.745Z,16.50
2022-10-11T08:29:14.636Z,16.60
2022-10-11T08:31:41.313Z,16.80
2022-10-11T08:34:07.972Z,16.80
2022-10-11T08:36:34.697Z,17.00
2022-10-11T08:39:01.470Z,17.00
2022-10-11T08:41:47.055Z,17.10
2022-10-11T08:44:16.834Z,17.30
2022-10-11T08:46:45.654Z,17.40
2022-10-11T08:49:13.144Z,17.50
2022-10-11T08:51:43.655Z,17.50
2022-10-11T08:54:19.144Z,17.60
2022-10-11T08:56:46.067Z,17.80
2022-10-11T08:59:12.707Z,18.50
2022-10-11T09:01:43.228Z,19.00
2022-10-11T09:04:17.347Z,19.40
2022-10-11T09:06:43.987Z,19.60
2022-10-11T09:09:18.065Z,19.70
2022-10-11T09:11:46.719Z,19.70
2022-10-11T09:14:16.425Z,19.70
2022-10-11T09:16:46.124Z,19.60
2022-10-11T09:19:12.745Z,19.70
2022-10-11T09:21:48.607Z,19.70
2022-10-11T09:24:34.145Z,19.90
2022-10-11T09:27:10.021Z,20.30
2022-10-11T09:29:49.186Z,20.60
2022-10-11T09:32:17.134Z,20.70
2022-10-11T09:34:43.798Z,20.80
2022-10-11T09:37:19.636Z,20.70
2022-10-11T09:39:51.036Z,20.40
2022-10-11T09:42:17.858Z,20.00
2022-10-11T09:44:49.163Z,19.60
2022-10-11T09:47:24.094Z,19.10
2022-10-11T09:49:53.033Z,18.70
2022-10-11T09:52:21.905Z,18.20
2022-10-11T09:54:50.060Z,17.90
2022-10-11T09:57:24.440Z,17.70
2022-10-11T10:00:09.888Z,17.50
2022-10-11T10:02:46.959Z,17.40
2022-10-11T10:05:15.480Z,17.30
2022-10-11T10:08:04.302Z,17.10
2022-10-11T10:10:55.741Z,17.00
2022-10-11T10:13:28.788Z,17.00
2022-10-11T10:15:56.762Z,17.00
2022-10-11T10:18:29.804Z,17.00
2022-10-11T10:20:57.730Z,17.10
2022-10-11T10:23:26.231Z,17.20
2022-10-11T10:26:09.196Z,17.30
2022-10-11T10:28:36.070Z,17.40
2022-10-11T10:31:02.762Z,17.50
2022-10-11T10:33:35.531Z,17.70
2022-10-11T10:36:23.309Z,18.00
2022-10-11T10:38:53.678Z,18.30
2022-10-11T10:41:20.409Z,18.60
2022-10-11T10:43:53.219Z,18.90
2022-10-11T10:46:19.836Z,19.10
2022-10-11T10:52:08.412Z,19.40
2022-10-11T10:54:38.078Z,19.70
2022-10-11T10:57:11.517Z,19.90
2022-10-11T10:59:44.282Z,20.10
2022-10-11T11:02:35.410Z,20.20
2022-10-11T11:05:06.803Z,20.40
2022-10-11T11:07:36.998Z,20.60
2022-10-11T11:10:06.740Z,20.60
2022-10-11T11:12:33.360Z,20.60
2022-10-11T11:15:03.601Z,20.60
2022-10-11T11:17:30.246Z,20.40
2022-10-11T11:20:15.707Z,20.20
2022-10-11T11:23:08.986Z,20.00
2022-10-11T11:25:54.453Z,19.90
2022-10-11T11:28:33.555Z,19.80
2022-10-11T11:31:11.834Z,19.80
2022-10-11T11:33:49.496Z,19.90
2022-10-11T11:36:18.736Z,19.90
2022-10-11T11:38:48.612Z,19.90
2022-10-11T11:41:20.929Z,19.80
2022-10-11T11:44:13.936Z,19.90
2022-10-11T11:46:46.198Z,20.00
2022-10-11T11:49:21.589Z,20.10
2022-10-11T11:51:48.577Z,20.10
2022-10-11T11:54:15.203Z,20.10
2022-10-11T11:56:44.987Z,20.10
2022-10-11T11:59:24.797Z,20.00
2022-10-11T12:02:03.877Z,20.10
2022-10-11T12:04:34.177Z,20.00
2022-10-11T12:07:16.449Z,20.10
2022-10-11T12:09:45.390Z,20.00
2022-10-11T12:12:27.388Z,20.00
2022-10-11T12:15:09.776Z,19.90
2022-10-11T12:17:55.866Z,20.00
2022-10-11T12:20:26.798Z,19.90
2022-10-11T12:22:53.441Z,19.90
2022-10-11T12:25:23.219Z,19.80
2022-10-11T12:27:54.216Z,19.70
2022-10-11T12:30:39.802Z,19.60
2022-10-11T12:33:13.395Z,19.60
2022-10-11T12:35:42.704Z,19.60
2022-10-11T12:38:15.533Z,19.70
2022-10-11T12:40:43.892Z,19.70
2022-10-11T12:43:19.919Z,19.80
2022-10-11T12:45:48.172Z,19.90
2022-10-11T12:48:27.418Z,20.00
2022-10-11T12:51:17.063Z,20.00
2022-10-11T12:54:07.940Z,20.00
2022-10-11T12:56:55.284Z,20.00
2022-10-11T12:59:23.009Z,19.90
2022-10-11T13:01:57.961Z,19.80
2022-10-11T13:04:29.273Z,19.80
2022-10-11T13:07:01.113Z,19.60
2022-10-11T13:09:39.291Z,19.60
2022-10-11T13:12:08.731Z,19.60
2022-10-11T13:14:37.102Z,19.70
2022-10-11T13:17:03.936Z,19.70
2022-10-11T13:19:31.548Z,19.70
2022-10-11T13:21:59.761Z,19.70
2022-10-11T13:24:27.764Z,19.60
2022-10-11T13:26:55.753Z,19.40
2022-10-11T13:29:37.196Z,19.20
2022-10-11T13:32:06.193Z,18.90
2022-10-11T13:34:35.538Z,18.60
2022-10-11T13:38:29.492Z,18.40
2022-10-11T13:40:59.274Z,18.20
2022-10-11T13:43:27.503Z,18.00
2022-10-11T13:45:54.629Z,17.90
2022-10-11T13:48:21.260Z,17.80
2022-10-11T13:51:06.618Z,17.80
2022-10-11T13:53:33.223Z,17.80
2022-10-11T13:56:02.290Z,17.80
2022-10-11T13:58:35.565Z,17.80
2022-10-11T14:01:03.608Z,17.80
2022-10-11T14:03:42.522Z,17.80
2022-10-11T14:06:09.690Z,17.80
2022-10-11T14:08:42.062Z,17.90
2022-10-11T14:11:09.757Z,17.90
2022-10-11T14:13:46.780Z,17.90
2022-10-11T14:16:16.145Z,18.00
2022-10-11T14:18:50.030Z,18.00
2022-10-11T14:21:20.026Z,17.90
2022-10-11T14:23:47.140Z,17.90
2022-10-11T14:26:18.543Z,17.90
2022-10-11T14:28:46.039Z,17.80
2022-10-11T14:31:12.726Z,17.70
2022-10-11T14:33:39.316Z,17.60
2022-10-11T14:36:06.305Z,17.60
2022-10-11T14:38:33.160Z,17.50
2022-10-11T14:40:59.779Z,17.50
2022-10-11T14:43:26.411Z,17.50
2022-10-11T14:45:53.124Z,17.50
2022-10-11T14:48:36.663Z,17.50
2022-10-11T14:51:06.697Z,17.50
2022-10-11T14:53:35.376Z,17.40
2022-10-11T14:56:05.690Z,17.30
2022-10-11T14:58:32.555Z,17.30
2022-10-11T15:00:59.162Z,17.20
2022-10-11T15:03:25.809Z,17.20
2022-10-11T15:05:52.481Z,17.10
2022-10-11T15:08:19.107Z,17.00
2022-10-11T15:10:45.737Z,17.00
2022-10-11T15:13:12.607Z,16.90
2022-10-11T15:15:41.102Z,16.80
2022-10-11T15:18:08.588Z,16.80
2022-10-11T15:20:39.991Z,16.70
2022-10-11T15:23:07.849Z,16.70
2022-10-11T15:25:34.654Z,16.60
2022-10-11T15:28:01.554Z,16.50
2022-10-11T15:30:29.876Z,16.50
2022-10-11T15:32:56.632Z,16.40
2022-10-11T15:35:24.424Z,16.40
2022-10-11T15:37:55.191Z,16.40
2022-10-11T15:40:31.767Z,16.30
2022-10-11T15:42:58.416Z,16.20
2022-10-11T15:45:25.682Z,16.20
2022-10-11T15:47:52.467Z,16.10
2022-10-11T15:50:24.269Z,16.10
2022-10-11T15:52:51.769Z,16.00
2022-10-11T15:55:18.463Z,16.10
2022-10-11T15:57:45.087Z,16.00
2022-10-11T16:00:11.868Z,16.00
2022-10-11T16:02:39.069Z,16.00
2022-10-11T16:05:05.879Z,16.00
2022-10-11T16:07:32.579Z,15.90
2022-10-11T16:09:59.548Z,15.90
2022-10-11T16:12:26.152Z,15.80
2022-10-11T16:14:52.764Z,15.80
2022-10-11T16:17:19.447Z,15.70
2022-10-11T16:19:46.083Z,15.80
2022-10-11T16:22:12.741Z,15.70
2022-10-11T16:24:39.844Z,15.70
2022-10-11T16:27:06.432Z,15.60
2022-10-11T16:29:33.080Z,15.60
2022-10-11T16:31:59.680Z,15.60
2022-10-11T16:34:26.404Z,15.50
2022-10-11T16:36:52.992Z,15.50
2022-10-11T16:39:20.066Z,15.40
2022-10-11T16:41:46.884Z,15.50
2022-10-11T16:44:14.747Z,15.40
2022-10-11T16:46:41.696Z,15.40
2022-10-11T16:49:08.313Z,15.40
2022-10-11T16:51:34.930Z,15.40
2022-10-11T16:54:01.763Z,15.30
2022-10-11T16:56:28.519Z,15.30
2022-10-11T16:58:55.374Z,15.30
2022-10-11T17:01:22.144Z,15.30
2022-10-11T17:03:49.863Z,15.30
2022-10-11T17:06:16.630Z,15.30
2022-10-11T17:08:43.250Z,15.30
2022-10-11T17:11:09.875Z,15.30
2022-10-11T17:13:36.493Z,15.20
2022-10-11T17:16:03.356Z,15.20
2022-10-11T17:18:31.924Z,15.20
2022-10-11T17:21:05.693Z,15.10
2022-10-11T17:23:33.351Z,15.10
2022-10-11T17:26:01.757Z,15.10
2022-10-11T17:28:28.435Z,15.10
2022-10-11T17:30:56.062Z,15.10
2022-10-11T17:33:23.057Z,15.10
2022-10-11T17:35:49.659Z,15.00
2022-10-11T17:38:19.603Z,15.00
2022-10-11T17:40:47.150Z,15.00
2022-10-11T17:43:15.728Z,15.00
2022-10-11T17:45:42.405Z,15.00
2022-10-11T17:48:08.994Z,14.90
2022-10-11T17:50:39.787Z,14.90
2022-10-11T17:53:06.435Z,14.90
2022-10-11T17:55:33.147Z,14.90
2022-10-11T17:57:59.730Z,14.90
2022-10-11T18:00:26.304Z,14.90
2022-10-11T18:02:53.572Z,14.80
2022-10-11T18:05:23.095Z,14.80
2022-10-11T18:07:52.356Z,14.80
2022-10-11T18:10:18.932Z,14.80
2022-10-11T18:12:45.528Z,14.80
2022-10-11T18:15:12.103Z,14.70
2022-10-11T18:17:38.778Z,14.80
2022-10-11T18:20:05.567Z,14.70
2022-10-11T18:22:32.251Z,14.70
2022-10-11T18:24:58.846Z,14.60
2022-10-11T18:27:25.427Z,14.60
2022-10-11T18:29:52.038Z,14.50
2022-10-11T18:32:18.684Z,14.50
2022-10-11T18:34:45.309Z,14.50
2022-10-11T18:37:11.950Z,14.40
2022-10-11T18:39:38.914Z,14.40
2022-10-11T18:42:05.654Z,14.30
2022-10-11T18:44:32.281Z,14.30
2022-10-11T18:46:58.998Z,14.20
2022-10-11T18:49:25.647Z,14.20
2022-10-11T18:51:52.372Z,14.20
2022-10-11T18:54:21.385Z,14.20
2022-10-11T18:56:48.809Z,14.10
2022-10-11T18:59:15.919Z,14.10
2022-10-11T19:01:44.560Z,14.00
2022-10-11T19:04:12.385Z,14.00
2022-10-11T19:06:40.696Z,14.00
2022-10-11T19:09:09.092Z,14.00
2022-10-11T19:11:36.045Z,14.00
2022-10-11T19:14:11.088Z,14.00
2022-10-11T19:16:38.961Z,13.90
2022-10-11T19:19:06.146Z,13.90
2022-10-11T19:21:33.024Z,13.90
2022-10-11T19:23:59.767Z,13.90
2022-10-11T19:26:29.085Z,13.90
2022-10-11T19:28:56.914Z,13.90
2022-10-11T19:31:23.934Z,13.90
2022-10-11T19:33:50.714Z,13.90
2022-10-11T19:36:17.554Z,13.90
2022-10-11T19:38:45.737Z,13.90
2022-10-11T19:41:13.099Z,13.90
2022-10-11T19:43:39.783Z,13.80
2022-10-11T19:46:08.302Z,13.90
2022-10-11T19:48:38.947Z,13.90
2022-10-11T19:51:09.923Z,13.90
2022-10-11T19:53:36.514Z,13.90
2022-10-11T19:56:04.795Z,13.90
2022-10-11T19:58:31.437Z,13.90
2022-10-11T20:01:01.941Z,13.90
2022-10-11T20:03:28.720Z,13.90
2022-10-11T20:05:55.343Z,13.90
2022-10-11T20:08:23.257Z,13.80
2022-10-11T20:10:52.677Z,13.80
2022-10-11T20:13:19.267Z,13.80
2022-10-11T20:15:45.843Z,13.80
2022-10-11T20:18:12.495Z,13.80
2022-10-11T20:20:39.136Z,13.80
2022-10-11T20:23:05.789Z,13.80
2022-10-11T20:25:32.354Z,13.80
2022-10-11T20:27:59.004Z,13.80
2022-10-11T20:30:25.712Z,13.80
2022-10-11T20:32:52.371Z,13.80
2022-10-11T20:35:18.980Z,13.80
2022-10-11T20:37:45.579Z,13.80
2022-10-11T20:40:12.458Z,13.80
2022-10-11T20:42:39.050Z,13.90
2022-10-11T20:45:05.811Z,13.80
2022-10-11T20:47:32.926Z,13.80
2022-10-11T20:49:59.720Z,13.80
2022-10-11T20:52:26.322Z,13.90
2022-10-11T20:54:52.990Z,13.90
2022-10-11T20:57:19.582Z,13.90
2022-10-11T20:59:47.562Z,13.90
2022-10-11T21:02:18.677Z,13.90
2022-10-11T21:04:45.748Z,13.90
2022-10-11T21:07:12.358Z,13.90
2022-10-11T21:09:38.985Z,13.90
2022-10-11T21:12:05.816Z,13.80
2022-10-11T21:14:32.435Z,13.80
2022-10-11T21:16:59.006Z,13.70
2022-10-11T21:19:25.638Z,13.70
2022-10-11T21:21:53.794Z,13.60
2022-10-11T21:24:21.405Z,13.60
2022-10-11T21:26:48.132Z,13.60
2022-10-11T21:29:14.806Z,13.60
2022-10-11T21:31:41.401Z,13.60
2022-10-11T21:34:07.996Z,13.60
2022-10-11T21:36:34.711Z,13.70
2022-10-11T21:39:01.375Z,13.70
2022-10-11T21:41:31.434Z,13.70
2022-10-11T21:43:58.375Z,13.70
2022-10-11T21:46:41.702Z,13.80
2022-10-11T21:49:12.882Z,13.80
2022-10-11T21:51:39.706Z,13.80
2022-10-11T21:54:06.377Z,13.80
2022-10-11T21:56:33.011Z,13.80
2022-10-11T21:58:59.599Z,13.80
2022-10-11T22:01:26.350Z,13.80
2022-10-11T22:03:53.719Z,13.80
2022-10-11T22:06:20.311Z,13.70
2022-10-11T22:08:47.879Z,13.80
2022-10-11T22:11:14.499Z,13.70
2022-10-11T22:13:41.201Z,13.70
2022-10-11T22:16:09.114Z,13.70
2022-10-11T22:18:36.142Z,13.60
2022-10-11T22:21:07.149Z,13.60
2022-10-11T22:23:33.776Z,13.50
2022-10-11T22:26:08.035Z,13.50
2022-10-11T22:28:35.006Z,13.40
2022-10-11T22:31:01.907Z,13.40
2022-10-11T22:33:28.560Z,13.30
2022-10-11T22:35:59.218Z,13.30
2022-10-11T22:38:26.420Z,13.20
2022-10-11T22:40:53.252Z,13.20
2022-10-11T22:43:19.865Z,13.10
2022-10-11T22:45:46.556Z,13.10
2022-10-11T22:48:13.154Z,13.00
2022-10-11T22:50:39.792Z,13.00
2022-10-11T22:53:07.315Z,13.00
2022-10-11T22:55:34.022Z,12.90
2022-10-11T22:58:00.806Z,12.90
2022-10-11T23:00:27.755Z,12.80
2022-10-11T23:02:54.336Z,12.80
2022-10-11T23:05:20.930Z,12.70
2022-10-11T23:07:47.545Z,12.70
2022-10-11T23:10:14.259Z,12.60
2022-10-11T23:12:40.844Z,12.50
2022-10-11T23:15:07.948Z,12.40
2022-10-11T23:17:34.769Z,12.40
2022-10-11T23:20:01.543Z,12.30
2022-10-11T23:22:28.158Z,12.20
2022-10-11T23:24:54.882Z,12.20
2022-10-11T23:27:21.570Z,12.10
2022-10-11T23:29:48.139Z,12.10
2022-10-11T23:32:14.769Z,12.10
2022-10-11T23:34:41.464Z,12.10
2022-10-11T23:37:08.083Z,12.10
2022-10-11T23:39:34.979Z,12.10
2022-10-11T23:42:01.599Z,12.10
2022-10-11T23:44:28.284Z,12.20
2022-10-11T23:46:54.899Z,12.20
2022-10-11T23:49:21.466Z,12.30
2022-10-11T23:51:48.164Z,12.30
2022-10-11T23:54:14.792Z,12.40
2022-10-11T23:56:41.461Z,12.40
2022-10-11T23:59:08.181Z,12.50
